Terminal Aerodrome Forecast
Issued by NWS Cleveland, OH

Home | Current Version | Previous Version | Graphics & Text | Print | Product List | Glossary On
Versions: 1 2 3 4 5 6 7 8 9 10 11 12 13
417
FTUS41 KCLE 192329
TAFERI
TAF
KERI 192329Z 2000/2024 03006KT P6SM SCT045 BKN200
     FM200600 13004KT 6SM BR SCT060 BKN150
      TEMPO 2006/2009 5SM BR BKN060
     FM200900 16003KT 4SM BR BKN050
     FM201400 23005KT P6SM BKN050
     FM201800 03005KT P6SM SCT050 BKN200
     FM202300 05006KT P6SM FEW050 SCT200=

USA.gov is the U.S. government's official web portal to all federal, state and local government web resources and services.